ADDS METAR Data INFO
IDs: Format: Raw Decoded Include TAF

Data at: 2114 UTC 22 Oct 2017

KAFP 222105Z AUTO 11004KT 10SM BKN060 26/13 A3023 RMK AO2 T02570131
KAFP 222045Z AUTO 12005KT 10SM CLR 26/13 A3023 RMK AO2 T02580133
KAFP 222025Z AUTO 13006KT 10SM SCT055 27/13 A3023 RMK AO2 T02740131
KAFP 222005Z AUTO 13005KT 10SM CLR 27/13 A3023 RMK AO2 T02720126
KAFP 221945Z AUTO 13004KT 10SM SCT050 27/13 A3023 RMK AO2 T02730126
KAFP 221925Z AUTO 14010KT 10SM OVC050 28/13 A3024 RMK AO2 T02810129
KAFP 221905Z AUTO 08005KT 10SM SCT050 27/13 A3025 RMK AO2 T02720133
KAFP 221845Z AUTO 11008KT 10SM SCT050 27/13 A3026 RMK AO2 T02650131
KAFP 221825Z AUTO 14006KT 10SM CLR 25/13 A3027 RMK AO2 T02530129
KAFP 221805Z AUTO 10008KT 080V160 10SM SCT047 27/13 A3027 RMK AO2 T02690132
KAFP 221745Z AUTO 11005KT 10SM SCT049 26/14 A3028 RMK AO2 T02640137
KAFP 221725Z AUTO 14007KT 10SM BKN049 26/14 A3030 RMK AO2 T02640139
KAFP 221705Z AUTO 15007KT 10SM SCT045 SCT055 26/14 A3031 RMK AO2 T02590138
KAFP 221645Z AUTO 09006KT 10SM SCT041 SCT047 25/14 A3032 RMK AO2 T02510137
KAFP 221625Z AUTO 05005KT 10SM CLR 25/14 A3033 RMK AO2 T02540138
KAFP 221605Z AUTO 11006KT 10SM CLR 25/13 A3034 RMK AO2 T02460130
KAFP 221545Z AUTO 00000KT 10SM CLR 24/15 A3034 RMK AO2 T02350150
KAFP 221525Z AUTO 00000KT 10SM CLR 22/16 A3035 RMK AO2 T02200155
KAFP 221505Z AUTO 00000KT 10SM CLR 20/15 A3036 RMK AO2 T02030151
KAFP 221445Z AUTO 00000KT 10SM CLR 18/14 A3036 RMK AO2 T01770143
KAFP 221425Z AUTO 00000KT 5SM BR SCT002 16/14 A3036 RMK AO2 T01600142
KAFP 221405Z AUTO 00000KT 1/2SM FG OVC002 14/13 A3036 RMK AO2 T01420134
KAFP 221345Z AUTO 00000KT M1/4SM FG OVC002 14/13 A3036 RMK AO2 T01360129
KAFP 221325Z AUTO 00000KT M1/4SM FG OVC002 12/12 A3036 RMK AO2 T01240116
KAFP 221245Z AUTO 00000KT 1SM BR OVC002 11/10 A3036 RMK AO2 T01110103
KAFP 221225Z AUTO 00000KT 4SM BR OVC002 10/09 A3035 RMK AO2 T00990091
KAFP 221205Z AUTO 00000KT 1 1/4SM BR OVC002 08/07 A3034 RMK AO2 T00810073
KAFP 221145Z AUTO 00000KT 1 1/4SM BR VV007 08/07 A3033 RMK AO2 VIS 1/2V4 T00780070
KAFP 221125Z AUTO 00000KT 1/2SM FG VV005 08/07 A3033 RMK AO2 T00760067
KAFP 221105Z AUTO 00000KT 10SM CLR 08/07 A3033 RMK AO2 T00810070
KAFP 221045Z AUTO 00000KT 10SM CLR 09/08 A3033 RMK AO2 T00870075
KAFP 221025Z AUTO 00000KT 10SM CLR 09/08 A3033 RMK AO2 T00900075
KAFP 221005Z AUTO 00000KT 10SM CLR 09/08 A3032 RMK AO2 T00900075
KAFP 220945Z AUTO 00000KT 10SM CLR 09/08 A3032 RMK AO2 T00890079
KAFP 220925Z AUTO 00000KT 10SM CLR 09/07 A3031 RMK AO2 T00850073
KAFP 220905Z AUTO 00000KT 10SM CLR 10/08 A3031 RMK AO2 T00950081
KAFP 220845Z AUTO 00000KT 10SM CLR 10/09 A3031 RMK AO2 T00990089
KAFP 220825Z AUTO 00000KT 10SM CLR 10/08 A3031 RMK AO2 T00960084
KAFP 220805Z AUTO 00000KT 10SM CLR 10/09 A3031 RMK AO2 T00980087
KAFP 220745Z AUTO 00000KT 10SM CLR 10/09 A3031 RMK AO2 T01020089
KAFP 220725Z AUTO 00000KT 10SM CLR 11/09 A3032 RMK AO2 T01050090
KAFP 220705Z AUTO 00000KT 10SM CLR 11/09 A3032 RMK AO2 T01060093
KAFP 220645Z AUTO 00000KT 10SM CLR 11/10 A3032 RMK AO2 T01090098
KAFP 220625Z AUTO 00000KT 10SM CLR 11/10 A3031 RMK AO2 T01090096
KAFP 220605Z AUTO 00000KT 10SM CLR 11/10 A3031 RMK AO2 T01100095
KAFP 220545Z AUTO 00000KT 10SM CLR 11/10 A3031 RMK AO2 T01120097
KAFP 220525Z AUTO 00000KT 10SM CLR 11/10 A3031 RMK AO2 T01120096
KAFP 220505Z AUTO 00000KT 10SM CLR 12/10 A3032 RMK AO2 T01200102
KAFP 220445Z AUTO 00000KT 10SM CLR 12/10 A3032 RMK AO2 T01170100
KAFP 220425Z AUTO 00000KT 10SM CLR 12/10 A3032 RMK AO2 T01170103
KAFP 220405Z AUTO 00000KT 10SM CLR 12/10 A3032 RMK AO2 T01180101
KAFP 220345Z AUTO 00000KT 10SM CLR 13/11 A3033 RMK AO2 T01290112
KAFP 220325Z AUTO 00000KT 10SM CLR 13/11 A3033 RMK AO2 T01320107
KAFP 220305Z AUTO 00000KT 10SM CLR 13/11 A3032 RMK AO2 T01320108
KAFP 220245Z AUTO 00000KT 10SM CLR 13/11 A3032 RMK AO2 T01330109
KAFP 220225Z AUTO 00000KT 10SM CLR 14/11 A3032 RMK AO2 T01350110
KAFP 220205Z AUTO 00000KT 10SM CLR 14/11 A3032 RMK AO2 T01360110
KAFP 220145Z AUTO 00000KT 10SM CLR 14/11 A3031 RMK AO2 T01400111
KAFP 220120Z AUTO 00000KT 10SM CLR 15/12 A3031 RMK AO2 T01460115
KAFP 220105Z AUTO 00000KT 10SM CLR 15/11 A3031 RMK AO2 T01500114
KAFP 220045Z AUTO 00000KT 10SM CLR 16/13 A3031 RMK AO2 T01600125
KAFP 220025Z AUTO 00000KT 10SM CLR 16/12 A3031 RMK AO2 T01610121
KAFP 220005Z AUTO 00000KT 10SM CLR 17/12 A3031 RMK AO2 T01670120
KAFP 212345Z AUTO 00000KT 10SM CLR 17/12 A3031 RMK AO2 T01740124
KAFP 212325Z AUTO 00000KT 10SM CLR 18/12 A3031 RMK AO2 T01840120
KAFP 212305Z AUTO 00000KT 10SM CLR 20/12 A3030 RMK AO2 T01950116
KAFP 212245Z AUTO 00000KT 10SM CLR 20/13 A3030 RMK AO2 T02020132
KAFP 212225Z AUTO 00000KT 10SM CLR 22/12 A3029 RMK AO2 T02190123
KAFP 212205Z AUTO 00000KT 10SM CLR 23/12 A3029 RMK AO2 T02330117
KAFP 212145Z AUTO 00000KT 10SM CLR 25/11 A3029 RMK AO2 T02450113
KAFP 212125Z AUTO 00000KT 10SM CLR 25/10 A3028 RMK AO2 T02490100
KAFP 212105Z AUTO 00000KT 10SM CLR 25/10 A3029 RMK AO2 T02520098
KAFP 212045Z AUTO 00000KT 10SM CLR 26/09 A3028 RMK AO2 T02590090
KAFP 212025Z AUTO 00000KT 10SM CLR 26/09 A3028 RMK AO2 T02610092
KAFP 212005Z AUTO 00000KT 10SM CLR 27/09 A3028 RMK AO2 T02650092
KAFP 211945Z AUTO 00000KT 10SM CLR 26/10 A3028 RMK AO2 T02630095
KAFP 211925Z AUTO 00000KT 10SM CLR 26/09 A3028 RMK AO2 T02600093
KAFP 211905Z AUTO 00000KT 10SM CLR 26/09 A3028 RMK AO2 T02620090
KAFP 211845Z AUTO 00000KT 10SM CLR 26/09 A3028 RMK AO2 T02620089
KAFP 211825Z AUTO 00000KT 10SM CLR 26/08 A3028 RMK AO2 T02610083
KAFP 211805Z AUTO 07003KT 10SM CLR 26/09 A3029 RMK AO2 T02640089
KAFP 211745Z AUTO 30004KT 10SM CLR 26/09 A3029 RMK AO2 T02610089
KAFP 211725Z AUTO 00000KT 10SM CLR 26/09 A3030 RMK AO2 T02550087
KAFP 211705Z AUTO 00000KT 10SM CLR 25/10 A3031 RMK AO2 T02510099
KAFP 211645Z AUTO 00000KT 10SM CLR 25/11 A3031 RMK AO2 T02500113
KAFP 211625Z AUTO 00000KT 10SM CLR 24/11 A3032 RMK AO2 T02410111
KAFP 211605Z AUTO 00000KT 10SM CLR 23/11 A3032 RMK AO2 T02320111
KAFP 211545Z AUTO 00000KT 10SM CLR 23/11 A3033 RMK AO2 T02260109
KAFP 211525Z AUTO 00000KT 10SM CLR 22/11 A3033 RMK AO2 T02160113
KAFP 211505Z AUTO 00000KT 10SM CLR 20/11 A3034 RMK AO2 T02040113
KAFP 211445Z AUTO 00000KT 10SM CLR 19/11 A3034 RMK AO2 T01860108
KAFP 211425Z AUTO 00000KT 10SM CLR 17/10 A3034 RMK AO2 T01690103
KAFP 211405Z AUTO 00000KT 10SM CLR 15/10 A3034 RMK AO2 T01540103
KAFP 211345Z AUTO 00000KT 10SM CLR 14/11 A3034 RMK AO2 T01400105
KAFP 211325Z AUTO 00000KT 10SM CLR 13/10 A3034 RMK AO2 T01250097
KAFP 211305Z AUTO 00000KT 10SM CLR 11/09 A3033 RMK AO2 T01100088
KAFP 211245Z AUTO 00000KT 10SM CLR 09/08 A3032 RMK AO2 T00930078
KAFP 211225Z AUTO 00000KT 10SM CLR 08/07 A3031 RMK AO2 T00760066
KAFP 211205Z AUTO 00000KT 10SM CLR 06/05 A3031 RMK AO2 T00620054
KAFP 211145Z AUTO 00000KT 10SM CLR 06/05 A3030 RMK AO2 T00620054
KAFP 211125Z AUTO 00000KT 10SM CLR 06/06 A3029 RMK AO2 T00630055
KAFP 211105Z AUTO 00000KT 10SM CLR 07/06 A3029 RMK AO2 T00650056
KAFP 211045Z AUTO 00000KT 10SM CLR 07/06 A3029 RMK AO2 T00660057
KAFP 211025Z AUTO 00000KT 10SM CLR 07/06 A3028 RMK AO2 T00650056
KAFP 211005Z AUTO 00000KT 10SM CLR 07/06 A3027 RMK AO2 T00680059
KAFP 210945Z AUTO 00000KT 10SM CLR 07/06 A3027 RMK AO2 T00680058
KAFP 210925Z AUTO 00000KT 10SM CLR 07/06 A3026 RMK AO2 T00670055